HomeShort term forecast

Short term forecast

Graphical weather forecast for the next 48 hours for Montreal:
Short term forecast
This weather forecast is automatically refreshed every 3 hours.

Hourly Experimental Forecast for the next 48 hours

Overall summary: Breezy starting later this afternoon, continuing until tomorrow morning, and rain this evening.

 Date & Hour   Temp   Feel   Baro   Hum   Speed & Bearing   Wind Gust   Precip.%   Precip.   Visibility   Cloud cover   Conditions 
 21/09/2018 - 14:00  22.2°C  22.6°C  1007.4 hPa  83%  23.8 km/h   50.7 km/h  34%  0.30 mm/h  16.1km  60%  Mostly Cloudy 
 21/09/2018 - 15:00  23.8°C  24.2°C  1006.2 hPa  76%  27.7 km/h   55.8 km/h  14%  0.41 mm/h  16.1km  51%  Breezy and Partly Cloudy 
 21/09/2018 - 16:00  24.8°C  25.2°C  1004.7 hPa  70%  30.3 km/h   58.9 km/h  4%  0.02 mm/h  16.1km  38%  Breezy and Partly Cloudy 
 21/09/2018 - 17:00  25.1°C  25.5°C  1003.1 hPa  69%  32.2 km/h   62.6 km/h  4%  0.03 mm/h  16.1km  25%  Breezy and Partly Cloudy 
 21/09/2018 - 18:00  24.7°C  25.0°C  1002.0 hPa  70%  33.6 km/h   62.9 km/h  7%  0.15 mm/h  16.1km  26%  Windy and Partly Cloudy 
 21/09/2018 - 19:00  23.7°C  24.0°C  1001.2 hPa  73%  33.3 km/h   61.2 km/h  29%  0.82 mm/h  16.1km  36%  Possible Light Rain and Breezy 
 21/09/2018 - 20:00  22.7°C  23.1°C  1000.8 hPa  77%  32.6 km/h   67.6 km/h  47%  1.26 mm/h  16.1km  58%  Light Rain and Windy 
 21/09/2018 - 21:00  21.7°C  22.2°C  1001.2 hPa  84%  33.4 km/h   66.9 km/h  34%  1.49 mm/h  14.8km  71%  Rain and Windy 
 21/09/2018 - 22:00  21.2°C  21.6°C  1001.9 hPa  87%  34.2 km/h   66.5 km/h  34%  0.57 mm/h  15.5km  64%  Windy and Mostly Cloudy 
 21/09/2018 - 23:00  20.9°C  21.3°C  1002.9 hPa  87%  33.9 km/h   67.6 km/h  27%  0.52 mm/h  13.5km  76%  Windy and Mostly Cloudy 
 22/09/2018 - 00:00  19.4°C  19.5°C  1004.4 hPa  83%  33.8 km/h   69.2 km/h  23%  0.23 mm/h  16.1km  63%  Windy and Mostly Cloudy 
 22/09/2018 - 01:00  17.8°C  17.8°C  1006.1 hPa  74%  33.3 km/h   65.7 km/h  16%  0.05 mm/h  16.1km  55%  Windy and Partly Cloudy 
 22/09/2018 - 02:00  15.7°C  15.7°C  1008.2 hPa  71%  31.3 km/h   60.8 km/h  11%  0.02 mm/h  16.1km  37%  Breezy and Partly Cloudy 
 22/09/2018 - 03:00  14.6°C  14.6°C  1010.1 hPa  69%  29.0 km/h   52.4 km/h  8%  0.02 mm/h  16.1km  37%  Breezy and Partly Cloudy 
 22/09/2018 - 04:00  13.2°C  13.2°C  1012.5 hPa  67%  25.9 km/h   46.6 km/h  0%  --  16.1km  31%  Breezy and Partly Cloudy 
 22/09/2018 - 05:00  12.1°C  12.1°C  1014.7 hPa  66%  23.2 km/h   41.3 km/h  0%  --  16.1km  25%  Partly Cloudy 
 22/09/2018 - 06:00  10.9°C  10.9°C  1016.7 hPa  66%  20.6 km/h   36.7 km/h  0%  --  16.1km  22%  Clear 
 22/09/2018 - 07:00  9.7°C  7.2°C  1018.6 hPa  68%  18.1 km/h   32.5 km/h  0%  --  16.1km  19%  Clear 
 22/09/2018 - 08:00  9.3°C  6.9°C  1020.2 hPa  67%  16.4 km/h   28.7 km/h  0%  --  16.1km  15%  Clear 
 22/09/2018 - 09:00  9.9°C  7.7°C  1021.3 hPa  63%  15.3 km/h   24.9 km/h  0%  --  16.1km  11%  Clear 
 22/09/2018 - 10:00  11.1°C  11.1°C  1021.9 hPa  56%  14.6 km/h   21.4 km/h  0%  --  16.1km  6%  Clear 
 22/09/2018 - 11:00  12.5°C  12.5°C  1022.4 hPa  51%  14.3 km/h   18.9 km/h  1%  0.01 mm/h  16.1km  2%  Clear 
 22/09/2018 - 12:00  13.6°C  13.6°C  1022.6 hPa  47%  14.1 km/h   18.0 km/h  0%  --  16.1km  2%  Clear 
 22/09/2018 - 13:00  14.5°C  14.5°C  1022.6 hPa  45%  14.2 km/h   17.9 km/h  0%  --  16.1km  2%  Clear 
 22/09/2018 - 14:00  15.3°C  15.3°C  1022.5 hPa  43%  14.3 km/h   18.1 km/h  0%  --  16.1km  2%  Clear 
 22/09/2018 - 15:00  16.2°C  16.2°C  1022.2 hPa  41%  14.6 km/h   18.2 km/h  0%  --  16.1km  1%  Clear 
 22/09/2018 - 16:00  16.8°C  16.8°C  1022.0 hPa  40%  15.0 km/h   18.4 km/h  0%  --  16.1km  0%  Clear 
 22/09/2018 - 17:00  16.7°C  16.7°C  1021.8 hPa  41%  15.1 km/h   18.8 km/h  0%  --  16.1km  0%  Clear 
 22/09/2018 - 18:00  15.7°C  15.7°C  1022.1 hPa  44%  13.9 km/h   19.4 km/h  0%  --  16.1km  0%  Clear 
 22/09/2018 - 19:00  13.9°C  13.9°C  1022.6 hPa  50%  12.2 km/h   20.2 km/h  0%  --  16.1km  0%  Clear 
 22/09/2018 - 20:00  12.5°C  12.5°C  1022.9 hPa  55%  11.0 km/h   20.1 km/h  0%  --  16.1km  0%  Clear 
 22/09/2018 - 21:00  11.5°C  11.5°C  1023.1 hPa  59%  10.0 km/h   17.9 km/h  0%  --  16.1km  0%  Clear 
 22/09/2018 - 22:00  10.9°C  10.9°C  1023.2 hPa  62%  9.3 km/h   14.8 km/h  0%  --  16.1km  0%  Clear 
 22/09/2018 - 23:00  10.4°C  10.4°C  1023.1 hPa  64%  8.9 km/h   13.1 km/h  0%  --  16.1km  0%  Clear 
 23/09/2018 - 00:00  9.8°C  8.6°C  1023.1 hPa  66%  8.8 km/h   13.8 km/h  0%  --  16.1km  0%  Clear 
 23/09/2018 - 01:00  9.5°C  8.2°C  1022.9 hPa  65%  9.1 km/h   15.8 km/h  0%  --  16.1km  0%  Clear 
 23/09/2018 - 02:00  9.0°C  7.5°C  1022.7 hPa  66%  9.5 km/h   18.5 km/h  0%  --  16.1km  0%  Clear 
 23/09/2018 - 03:00  8.5°C  6.8°C  1022.6 hPa  69%  10.1 km/h   21.9 km/h  0%  --  16.1km  1%  Clear 
 23/09/2018 - 04:00  8.1°C  6.3°C  1022.5 hPa  71%  10.8 km/h   25.8 km/h  0%  --  16.1km  2%  Clear 
 23/09/2018 - 05:00  8.0°C  5.9°C  1022.5 hPa  72%  11.6 km/h   28.7 km/h  3%  0.01 mm/h  16.1km  3%  Clear 
 23/09/2018 - 06:00  7.9°C  5.7°C  1022.7 hPa  74%  12.6 km/h   30.2 km/h  0%  --  16.1km  3%  Clear 
 23/09/2018 - 07:00  8.0°C  5.6°C  1023.1 hPa  75%  13.6 km/h   30.8 km/h  0%  --  16.1km  3%  Clear 
 23/09/2018 - 08:00  8.4°C  6.1°C  1023.5 hPa  75%  14.4 km/h   30.4 km/h  0%  --  16.1km  9%  Clear 
 23/09/2018 - 09:00  9.3°C  7.2°C  1024.0 hPa  73%  14.4 km/h   28.7 km/h  2%  0.01 mm/h  16.1km  26%  Partly Cloudy 
 23/09/2018 - 10:00  10.8°C  10.8°C  1024.3 hPa  68%  14.1 km/h   25.8 km/h  3%  0.02 mm/h  16.1km  49%  Partly Cloudy 
 23/09/2018 - 11:00  12.1°C  12.1°C  1024.6 hPa  64%  14.0 km/h   23.0 km/h  4%  0.03 mm/h  16.1km  65%  Mostly Cloudy 
 23/09/2018 - 12:00  13.2°C  13.2°C  1024.8 hPa  62%  13.6 km/h   20.5 km/h  4%  0.03 mm/h  16.1km  67%  Mostly Cloudy 
 23/09/2018 - 13:00  13.8°C  13.8°C  1024.9 hPa  61%  13.0 km/h   18.3 km/h  3%  0.01 mm/h  16.1km  68%  Mostly Cloudy 
Test

 

Past weather and reports

Past weatherFind in this section the past weather conditions, weather archive, graphics, reports and statistics.

Current conditions

Current weather condition for MontrealAll you need to know about the current weather conditions for Montreal. Weather data is updated every 10 minutes.

Weather forecast

Current Montreal weatherSince 2004, celinium.com website has provided accurate weather forecast for Montreal's island.